sensor_id;sensor_type;location;lat;lon;timestamp;temperature;humidity
66962;HTU21D;53897;51.126;5.868;2023-05-28T00:00:11;25.51;46.25
66962;HTU21D;53897;51.126;5.868;2023-05-28T00:02:45;25.50;46.23
66962;HTU21D;53897;51.126;5.868;2023-05-28T00:05:11;25.50;46.19
66962;HTU21D;53897;51.126;5.868;2023-05-28T00:07:37;25.50;46.15
66962;HTU21D;53897;51.126;5.868;2023-05-28T00:10:05;25.49;46.14
66962;HTU21D;53897;51.126;5.868;2023-05-28T00:12:31;25.47;46.07
66962;HTU21D;53897;51.126;5.868;2023-05-28T00:14:56;25.48;46.00
66962;HTU21D;53897;51.126;5.868;2023-05-28T00:17:22;25.47;46.06
66962;HTU21D;53897;51.126;5.868;2023-05-28T00:19:48;25.45;46.06
66962;HTU21D;53897;51.126;5.868;2023-05-28T00:22:14;25.46;46.05
66962;HTU21D;53897;51.126;5.868;2023-05-28T00:24:39;25.46;46.05
66962;HTU21D;53897;51.126;5.868;2023-05-28T00:27:05;25.45;46.01
66962;HTU21D;53897;51.126;5.868;2023-05-28T00:29:34;25.44;45.98
66962;HTU21D;53897;51.126;5.868;2023-05-28T00:31:59;25.43;45.94
66962;HTU21D;53897;51.126;5.868;2023-05-28T00:34:25;25.43;45.92
66962;HTU21D;53897;51.126;5.868;2023-05-28T00:36:52;25.43;45.89
66962;HTU21D;53897;51.126;5.868;2023-05-28T00:39:19;25.42;45.85
66962;HTU21D;53897;51.126;5.868;2023-05-28T00:41:45;25.39;45.82
66962;HTU21D;53897;51.126;5.868;2023-05-28T00:44:11;25.39;45.80
66962;HTU21D;53897;51.126;5.868;2023-05-28T00:46:43;25.38;45.77
66962;HTU21D;53897;51.126;5.868;2023-05-28T00:49:12;25.39;45.76
66962;HTU21D;53897;51.126;5.868;2023-05-28T00:51:39;25.39;45.73
66962;HTU21D;53897;51.126;5.868;2023-05-28T00:54:05;25.39;45.71
66962;HTU21D;53897;51.126;5.868;2023-05-28T00:56:31;25.37;45.71
66962;HTU21D;53897;51.126;5.868;2023-05-28T00:58:58;25.37;45.70
66962;HTU21D;53897;51.126;5.868;2023-05-28T01:01:26;25.36;45.67
66962;HTU21D;53897;51.126;5.868;2023-05-28T01:03:52;25.35;45.69
66962;HTU21D;53897;51.126;5.868;2023-05-28T01:06:20;25.34;45.68
66962;HTU21D;53897;51.126;5.868;2023-05-28T01:08:48;25.35;45.68
66962;HTU21D;53897;51.126;5.868;2023-05-28T01:11:17;25.33;45.67
66962;HTU21D;53897;51.126;5.868;2023-05-28T01:13:45;25.32;45.66
66962;HTU21D;53897;51.126;5.868;2023-05-28T01:16:12;25.33;45.64
66962;HTU21D;53897;51.126;5.868;2023-05-28T01:18:42;25.32;45.63
66962;HTU21D;53897;51.126;5.868;2023-05-28T01:21:11;25.31;45.64
66962;HTU21D;53897;51.126;5.868;2023-05-28T01:23:44;25.30;45.66
66962;HTU21D;53897;51.126;5.868;2023-05-28T01:26:12;25.29;45.67
66962;HTU21D;53897;51.126;5.868;2023-05-28T01:28:38;25.29;45.67
66962;HTU21D;53897;51.126;5.868;2023-05-28T01:31:11;25.29;45.64
66962;HTU21D;53897;51.126;5.868;2023-05-28T01:33:37;25.29;45.63
66962;HTU21D;53897;51.126;5.868;2023-05-28T01:36:08;25.27;45.62
66962;HTU21D;53897;51.126;5.868;2023-05-28T01:38:39;25.27;45.60
66962;HTU21D;53897;51.126;5.868;2023-05-28T01:41:07;25.25;45.60
66962;HTU21D;53897;51.126;5.868;2023-05-28T01:43:33;25.27;45.61
66962;HTU21D;53897;51.126;5.868;2023-05-28T01:45:59;25.24;45.60
66962;HTU21D;53897;51.126;5.868;2023-05-28T01:48:27;25.24;45.57
66962;HTU21D;53897;51.126;5.868;2023-05-28T01:50:54;25.23;45.58
66962;HTU21D;53897;51.126;5.868;2023-05-28T01:53:20;25.22;45.59
66962;HTU21D;53897;51.126;5.868;2023-05-28T01:55:46;25.21;45.60
66962;HTU21D;53897;51.126;5.868;2023-05-28T01:58:13;25.20;45.64
66962;HTU21D;53897;51.126;5.868;2023-05-28T02:00:47;25.20;45.69
66962;HTU21D;53897;51.126;5.868;2023-05-28T02:03:15;25.19;45.69
66962;HTU21D;53897;51.126;5.868;2023-05-28T02:05:41;25.19;45.70
66962;HTU21D;53897;51.126;5.868;2023-05-28T02:08:07;25.18;45.70
66962;HTU21D;53897;51.126;5.868;2023-05-28T02:10:33;25.18;45.67
66962;HTU21D;53897;51.126;5.868;2023-05-28T02:12:59;25.16;45.64
66962;HTU21D;53897;51.126;5.868;2023-05-28T02:15:26;25.17;45.62
66962;HTU21D;53897;51.126;5.868;2023-05-28T02:17:51;25.16;45.58
66962;HTU21D;53897;51.126;5.868;2023-05-28T02:20:17;25.14;45.56
66962;HTU21D;53897;51.126;5.868;2023-05-28T02:22:43;25.14;45.51
66962;HTU21D;53897;51.126;5.868;2023-05-28T02:25:09;25.14;45.49
66962;HTU21D;53897;51.126;5.868;2023-05-28T02:27:34;25.14;45.49
66962;HTU21D;53897;51.126;5.868;2023-05-28T02:30:01;25.13;45.50
66962;HTU21D;53897;51.126;5.868;2023-05-28T02:32:27;25.12;45.55
66962;HTU21D;53897;51.126;5.868;2023-05-28T02:34:53;25.10;45.57
66962;HTU21D;53897;51.126;5.868;2023-05-28T02:37:20;25.12;45.51
66962;HTU21D;53897;51.126;5.868;2023-05-28T02:39:50;25.09;45.44
66962;HTU21D;53897;51.126;5.868;2023-05-28T02:42:17;25.09;45.45
66962;HTU21D;53897;51.126;5.868;2023-05-28T02:44:43;25.08;45.44
66962;HTU21D;53897;51.126;5.868;2023-05-28T02:47:09;25.07;45.41
66962;HTU21D;53897;51.126;5.868;2023-05-28T02:49:36;25.06;45.38
66962;HTU21D;53897;51.126;5.868;2023-05-28T02:52:01;25.05;45.38
66962;HTU21D;53897;51.126;5.868;2023-05-28T02:54:32;25.06;45.38
66962;HTU21D;53897;51.126;5.868;2023-05-28T02:56:58;25.04;45.39
66962;HTU21D;53897;51.126;5.868;2023-05-28T02:59:24;25.04;45.37
66962;HTU21D;53897;51.126;5.868;2023-05-28T03:01:50;25.04;45.37
66962;HTU21D;53897;51.126;5.868;2023-05-28T03:04:16;25.03;45.37
66962;HTU21D;53897;51.126;5.868;2023-05-28T03:06:42;25.03;45.38
66962;HTU21D;53897;51.126;5.868;2023-05-28T03:09:08;25.01;45.38
66962;HTU21D;53897;51.126;5.868;2023-05-28T03:11:33;25.01;45.38
66962;HTU21D;53897;51.126;5.868;2023-05-28T03:13:59;25.00;45.35
66962;HTU21D;53897;51.126;5.868;2023-05-28T03:16:26;25.01;45.35
66962;HTU21D;53897;51.126;5.868;2023-05-28T03:18:51;24.99;45.34
66962;HTU21D;53897;51.126;5.868;2023-05-28T03:21:18;25.00;45.32
66962;HTU21D;53897;51.126;5.868;2023-05-28T03:23:43;24.98;45.28
66962;HTU21D;53897;51.126;5.868;2023-05-28T03:26:20;24.98;45.26
66962;HTU21D;53897;51.126;5.868;2023-05-28T03:28:47;24.97;45.25
66962;HTU21D;53897;51.126;5.868;2023-05-28T03:31:27;24.97;45.22
66962;HTU21D;53897;51.126;5.868;2023-05-28T03:33:53;24.94;45.19
66962;HTU21D;53897;51.126;5.868;2023-05-28T03:36:19;24.93;45.16
66962;HTU21D;53897;51.126;5.868;2023-05-28T03:38:45;24.93;45.14
66962;HTU21D;53897;51.126;5.868;2023-05-28T03:41:11;24.92;45.13
66962;HTU21D;53897;51.126;5.868;2023-05-28T03:43:37;24.93;45.09
66962;HTU21D;53897;51.126;5.868;2023-05-28T03:46:04;24.91;45.09
66962;HTU21D;53897;51.126;5.868;2023-05-28T03:48:30;24.91;45.04
66962;HTU21D;53897;51.126;5.868;2023-05-28T03:50:56;24.90;45.03
66962;HTU21D;53897;51.126;5.868;2023-05-28T03:53:22;24.90;45.06
66962;HTU21D;53897;51.126;5.868;2023-05-28T03:55:48;24.89;45.04
66962;HTU21D;53897;51.126;5.868;2023-05-28T03:58:17;24.89;45.09
66962;HTU21D;53897;51.126;5.868;2023-05-28T04:00:43;24.86;45.17
66962;HTU21D;53897;51.126;5.868;2023-05-28T04:03:09;24.86;45.22
66962;HTU21D;53897;51.126;5.868;2023-05-28T04:05:37;24.83;45.34
66962;HTU21D;53897;51.126;5.868;2023-05-28T04:08:03;24.82;45.49
66962;HTU21D;53897;51.126;5.868;2023-05-28T04:10:29;24.77;45.55
66962;HTU21D;53897;51.126;5.868;2023-05-28T04:12:55;24.74;45.60
66962;HTU21D;53897;51.126;5.868;2023-05-28T04:15:21;24.71;45.64
66962;HTU21D;53897;51.126;5.868;2023-05-28T04:17:47;24.70;45.70
66962;HTU21D;53897;51.126;5.868;2023-05-28T04:20:14;24.68;45.72
66962;HTU21D;53897;51.126;5.868;2023-05-28T04:22:39;24.66;45.77
66962;HTU21D;53897;51.126;5.868;2023-05-28T04:25:06;24.61;45.83
66962;HTU21D;53897;51.126;5.868;2023-05-28T04:27:32;24.61;45.77
66962;HTU21D;53897;51.126;5.868;2023-05-28T04:29:58;24.59;45.67
66962;HTU21D;53897;51.126;5.868;2023-05-28T04:32:24;24.57;45.60
66962;HTU21D;53897;51.126;5.868;2023-05-28T04:34:50;24.55;45.55
66962;HTU21D;53897;51.126;5.868;2023-05-28T04:37:19;24.54;45.55
66962;HTU21D;53897;51.126;5.868;2023-05-28T04:39:46;24.51;45.54
66962;HTU21D;53897;51.126;5.868;2023-05-28T04:42:11;24.53;45.54
66962;HTU21D;53897;51.126;5.868;2023-05-28T04:44:43;24.54;45.48
66962;HTU21D;53897;51.126;5.868;2023-05-28T04:47:09;24.54;45.43
66962;HTU21D;53897;51.126;5.868;2023-05-28T04:49:34;24.53;45.45
66962;HTU21D;53897;51.126;5.868;2023-05-28T04:52:02;24.54;45.41
66962;HTU21D;53897;51.126;5.868;2023-05-28T04:54:29;24.51;45.36
66962;HTU21D;53897;51.126;5.868;2023-05-28T04:56:55;24.49;45.39
66962;HTU21D;53897;51.126;5.868;2023-05-28T04:59:20;24.47;45.41
66962;HTU21D;53897;51.126;5.868;2023-05-28T05:01:46;24.45;45.46
66962;HTU21D;53897;51.126;5.868;2023-05-28T05:04:12;24.40;45.51
66962;HTU21D;53897;51.126;5.868;2023-05-28T05:06:38;24.41;45.53
66962;HTU21D;53897;51.126;5.868;2023-05-28T05:09:04;24.41;45.52
66962;HTU21D;53897;51.126;5.868;2023-05-28T05:11:33;24.41;45.47
66962;HTU21D;53897;51.126;5.868;2023-05-28T05:14:00;24.40;45.49
66962;HTU21D;53897;51.126;5.868;2023-05-28T05:16:25;24.43;45.46
66962;HTU21D;53897;51.126;5.868;2023-05-28T05:18:51;24.41;45.45
66962;HTU21D;53897;51.126;5.868;2023-05-28T05:21:17;24.42;45.43
66962;HTU21D;53897;51.126;5.868;2023-05-28T05:23:43;24.41;45.41
66962;HTU21D;53897;51.126;5.868;2023-05-28T05:26:09;24.40;45.45
66962;HTU21D;53897;51.126;5.868;2023-05-28T05:28:36;24.36;45.51
66962;HTU21D;53897;51.126;5.868;2023-05-28T05:31:03;24.34;45.56
66962;HTU21D;53897;51.126;5.868;2023-05-28T05:33:29;24.32;45.61
66962;HTU21D;53897;51.126;5.868;2023-05-28T05:36:30;24.34;45.61
66962;HTU21D;53897;51.126;5.868;2023-05-28T05:39:04;24.38;45.61
66962;HTU21D;53897;51.126;5.868;2023-05-28T05:41:50;24.41;45.55
66962;HTU21D;53897;51.126;5.868;2023-05-28T05:44:19;24.43;45.44
66962;HTU21D;53897;51.126;5.868;2023-05-28T05:46:45;24.43;45.34
66962;HTU21D;53897;51.126;5.868;2023-05-28T05:49:10;24.46;45.23
66962;HTU21D;53897;51.126;5.868;2023-05-28T05:51:37;24.48;45.19
66962;HTU21D;53897;51.126;5.868;2023-05-28T05:54:03;24.49;45.16
66962;HTU21D;53897;51.126;5.868;2023-05-28T05:56:29;24.49;45.14
66962;HTU21D;53897;51.126;5.868;2023-05-28T05:58:56;24.50;45.10
66962;HTU21D;53897;51.126;5.868;2023-05-28T06:01:22;24.50;45.08
66962;HTU21D;53897;51.126;5.868;2023-05-28T06:03:48;24.50;45.11
66962;HTU21D;53897;51.126;5.868;2023-05-28T06:06:33;24.50;45.15
66962;HTU21D;53897;51.126;5.868;2023-05-28T06:09:28;24.49;45.17
66962;HTU21D;53897;51.126;5.868;2023-05-28T06:11:55;24.50;45.20
66962;HTU21D;53897;51.126;5.868;2023-05-28T06:14:21;24.50;45.22
66962;HTU21D;53897;51.126;5.868;2023-05-28T06:16:47;24.49;45.22
66962;HTU21D;53897;51.126;5.868;2023-05-28T06:19:14;24.51;45.25
66962;HTU21D;53897;51.126;5.868;2023-05-28T06:21:40;24.51;45.29
66962;HTU21D;53897;51.126;5.868;2023-05-28T06:24:06;24.53;45.35
66962;HTU21D;53897;51.126;5.868;2023-05-28T06:26:32;24.53;45.37
66962;HTU21D;53897;51.126;5.868;2023-05-28T06:28:58;24.55;45.38
66962;HTU21D;53897;51.126;5.868;2023-05-28T06:31:25;24.53;45.47
66962;HTU21D;53897;51.126;5.868;2023-05-28T06:33:51;24.54;45.51
66962;HTU21D;53897;51.126;5.868;2023-05-28T06:36:18;24.54;45.54
66962;HTU21D;53897;51.126;5.868;2023-05-28T06:38:44;24.54;45.57
66962;HTU21D;53897;51.126;5.868;2023-05-28T06:41:10;24.54;45.60
66962;HTU21D;53897;51.126;5.868;2023-05-28T06:43:47;24.55;45.63
66962;HTU21D;53897;51.126;5.868;2023-05-28T06:46:22;24.56;45.67
66962;HTU21D;53897;51.126;5.868;2023-05-28T06:48:48;24.56;45.70
66962;HTU21D;53897;51.126;5.868;2023-05-28T06:51:14;24.55;45.74
66962;HTU21D;53897;51.126;5.868;2023-05-28T06:53:40;24.55;45.75
66962;HTU21D;53897;51.126;5.868;2023-05-28T06:56:06;24.55;45.78
66962;HTU21D;53897;51.126;5.868;2023-05-28T06:58:44;24.56;45.78
66962;HTU21D;53897;51.126;5.868;2023-05-28T07:01:21;24.56;45.82
66962;HTU21D;53897;51.126;5.868;2023-05-28T07:04:07;24.56;45.86
66962;HTU21D;53897;51.126;5.868;2023-05-28T07:06:38;24.57;45.86
66962;HTU21D;53897;51.126;5.868;2023-05-28T07:09:06;24.57;45.86
66962;HTU21D;53897;51.126;5.868;2023-05-28T07:11:32;24.58;45.87
66962;HTU21D;53897;51.126;5.868;2023-05-28T07:13:58;24.58;45.84
66962;HTU21D;53897;51.126;5.868;2023-05-28T07:16:24;24.58;45.77
66962;HTU21D;53897;51.126;5.868;2023-05-28T07:18:50;24.58;45.80
66962;HTU21D;53897;51.126;5.868;2023-05-28T07:21:17;24.60;45.82
66962;HTU21D;53897;51.126;5.868;2023-05-28T07:23:45;24.57;45.82
66962;HTU21D;53897;51.126;5.868;2023-05-28T07:26:11;24.60;45.80
66962;HTU21D;53897;51.126;5.868;2023-05-28T07:28:37;24.60;45.89
66962;HTU21D;53897;51.126;5.868;2023-05-28T07:31:03;24.60;45.94
66962;HTU21D;53897;51.126;5.868;2023-05-28T07:33:29;24.61;45.97
66962;HTU21D;53897;51.126;5.868;2023-05-28T07:35:56;24.60;45.99
66962;HTU21D;53897;51.126;5.868;2023-05-28T07:38:21;24.61;46.05
66962;HTU21D;53897;51.126;5.868;2023-05-28T07:40:50;24.62;46.10
66962;HTU21D;53897;51.126;5.868;2023-05-28T07:43:24;24.63;46.15
66962;HTU21D;53897;51.126;5.868;2023-05-28T07:45:53;24.63;46.16
66962;HTU21D;53897;51.126;5.868;2023-05-28T07:48:21;24.65;46.15
66962;HTU21D;53897;51.126;5.868;2023-05-28T07:50:53;24.65;46.20
66962;HTU21D;53897;51.126;5.868;2023-05-28T07:53:35;24.68;46.22
66962;HTU21D;53897;51.126;5.868;2023-05-28T07:56:03;24.68;46.25
66962;HTU21D;53897;51.126;5.868;2023-05-28T07:58:31;24.68;46.26
66962;HTU21D;53897;51.126;5.868;2023-05-28T08:00:58;24.69;46.18
66962;HTU21D;53897;51.126;5.868;2023-05-28T08:03:23;24.71;46.09
66962;HTU21D;53897;51.126;5.868;2023-05-28T08:05:54;24.71;45.99
66962;HTU21D;53897;51.126;5.868;2023-05-28T08:08:20;24.71;45.96
66962;HTU21D;53897;51.126;5.868;2023-05-28T08:10:46;24.72;45.96
66962;HTU21D;53897;51.126;5.868;2023-05-28T08:13:13;24.72;45.93
66962;HTU21D;53897;51.126;5.868;2023-05-28T08:15:39;24.75;45.94
66962;HTU21D;53897;51.126;5.868;2023-05-28T08:18:07;24.75;45.90
66962;HTU21D;53897;51.126;5.868;2023-05-28T08:20:34;24.76;45.90
66962;HTU21D;53897;51.126;5.868;2023-05-28T08:23:14;24.77;45.96
66962;HTU21D;53897;51.126;5.868;2023-05-28T08:25:41;24.77;45.96
66962;HTU21D;53897;51.126;5.868;2023-05-28T08:28:11;24.78;45.92
66962;HTU21D;53897;51.126;5.868;2023-05-28T08:30:37;24.79;45.92
66962;HTU21D;53897;51.126;5.868;2023-05-28T08:33:12;24.78;45.88
66962;HTU21D;53897;51.126;5.868;2023-05-28T08:35:38;24.80;45.87
66962;HTU21D;53897;51.126;5.868;2023-05-28T08:38:06;24.79;45.88
66962;HTU21D;53897;51.126;5.868;2023-05-28T08:40:41;24.82;46.02
66962;HTU21D;53897;51.126;5.868;2023-05-28T08:43:09;24.82;46.26
66962;HTU21D;53897;51.126;5.868;2023-05-28T08:45:36;24.83;46.47
66962;HTU21D;53897;51.126;5.868;2023-05-28T08:48:05;24.85;46.64
66962;HTU21D;53897;51.126;5.868;2023-05-28T08:50:35;24.85;46.76
66962;HTU21D;53897;51.126;5.868;2023-05-28T08:53:16;24.88;46.93
66962;HTU21D;53897;51.126;5.868;2023-05-28T08:55:45;24.88;47.24
66962;HTU21D;53897;51.126;5.868;2023-05-28T08:58:17;24.90;47.46
66962;HTU21D;53897;51.126;5.868;2023-05-28T09:00:48;24.92;47.54
66962;HTU21D;53897;51.126;5.868;2023-05-28T09:03:32;24.94;47.67
66962;HTU21D;53897;51.126;5.868;2023-05-28T09:06:05;24.95;47.86
66962;HTU21D;53897;51.126;5.868;2023-05-28T09:08:32;24.95;47.89
66962;HTU21D;53897;51.126;5.868;2023-05-28T09:11:13;24.98;47.88
66962;HTU21D;53897;51.126;5.868;2023-05-28T09:13:44;25.00;47.76
66962;HTU21D;53897;51.126;5.868;2023-05-28T09:16:12;25.01;47.81
66962;HTU21D;53897;51.126;5.868;2023-05-28T09:18:49;25.03;48.21
66962;HTU21D;53897;51.126;5.868;2023-05-28T09:21:15;25.05;48.46
66962;HTU21D;53897;51.126;5.868;2023-05-28T09:23:43;25.07;48.56
66962;HTU21D;53897;51.126;5.868;2023-05-28T09:26:11;25.07;48.41
66962;HTU21D;53897;51.126;5.868;2023-05-28T09:28:45;25.09;48.25
66962;HTU21D;53897;51.126;5.868;2023-05-28T09:31:11;25.10;48.15
66962;HTU21D;53897;51.126;5.868;2023-05-28T09:33:42;25.10;48.10
66962;HTU21D;53897;51.126;5.868;2023-05-28T09:36:11;25.12;48.03
66962;HTU21D;53897;51.126;5.868;2023-05-28T09:38:38;25.14;48.02
66962;HTU21D;53897;51.126;5.868;2023-05-28T09:41:26;25.16;47.92
66962;HTU21D;53897;51.126;5.868;2023-05-28T09:44:03;25.16;47.87
66962;HTU21D;53897;51.126;5.868;2023-05-28T09:46:34;25.16;47.89
66962;HTU21D;53897;51.126;5.868;2023-05-28T09:49:02;25.20;47.87
66962;HTU21D;53897;51.126;5.868;2023-05-28T09:51:30;25.20;47.83
66962;HTU21D;53897;51.126;5.868;2023-05-28T09:53:59;25.20;47.76
66962;HTU21D;53897;51.126;5.868;2023-05-28T09:56:28;25.20;47.79
66962;HTU21D;53897;51.126;5.868;2023-05-28T09:58:59;25.21;47.79
66962;HTU21D;53897;51.126;5.868;2023-05-28T10:01:31;25.21;47.71
66962;HTU21D;53897;51.126;5.868;2023-05-28T10:04:05;25.22;47.71
66962;HTU21D;53897;51.126;5.868;2023-05-28T10:06:35;25.23;47.68
66962;HTU21D;53897;51.126;5.868;2023-05-28T10:09:02;25.24;47.76
66962;HTU21D;53897;51.126;5.868;2023-05-28T10:11:33;25.24;47.77
66962;HTU21D;53897;51.126;5.868;2023-05-28T10:14:00;25.27;47.74
66962;HTU21D;53897;51.126;5.868;2023-05-28T10:16:26;25.28;47.63
66962;HTU21D;53897;51.126;5.868;2023-05-28T10:18:53;25.30;47.55
66962;HTU21D;53897;51.126;5.868;2023-05-28T10:21:19;25.31;47.47
66962;HTU21D;53897;51.126;5.868;2023-05-28T10:23:46;25.32;47.44
66962;HTU21D;53897;51.126;5.868;2023-05-28T10:26:14;25.32;47.40
66962;HTU21D;53897;51.126;5.868;2023-05-28T10:28:40;25.33;47.41
66962;HTU21D;53897;51.126;5.868;2023-05-28T10:31:07;25.35;47.47
66962;HTU21D;53897;51.126;5.868;2023-05-28T10:33:40;25.33;47.52
66962;HTU21D;53897;51.126;5.868;2023-05-28T10:36:12;25.32;47.50
66962;HTU21D;53897;51.126;5.868;2023-05-28T10:38:45;25.34;47.50
66962;HTU21D;53897;51.126;5.868;2023-05-28T10:41:21;25.36;47.50
66962;HTU21D;53897;51.126;5.868;2023-05-28T10:43:48;25.36;47.45
66962;HTU21D;53897;51.126;5.868;2023-05-28T10:46:26;25.38;47.39
66962;HTU21D;53897;51.126;5.868;2023-05-28T10:49:12;25.39;47.41
66962;HTU21D;53897;51.126;5.868;2023-05-28T10:57:16;25.42;47.58
66962;HTU21D;53897;51.126;5.868;2023-05-28T10:59:50;25.40;47.57
66962;HTU21D;53897;51.126;5.868;2023-05-28T11:02:28;25.43;47.54
66962;HTU21D;53897;51.126;5.868;2023-05-28T11:07:31;25.43;47.62
66962;HTU21D;53897;51.126;5.868;2023-05-28T11:09:59;25.45;47.60
66962;HTU21D;53897;51.126;5.868;2023-05-28T11:12:30;25.46;47.59
66962;HTU21D;53897;51.126;5.868;2023-05-28T11:14:56;25.47;47.54
66962;HTU21D;53897;51.126;5.868;2023-05-28T11:17:22;25.49;47.60
66962;HTU21D;53897;51.126;5.868;2023-05-28T11:19:50;25.50;47.64
66962;HTU21D;53897;51.126;5.868;2023-05-28T11:22:17;25.51;47.57
66962;HTU21D;53897;51.126;5.868;2023-05-28T11:24:56;25.52;47.53
66962;HTU21D;53897;51.126;5.868;2023-05-28T11:27:29;25.52;47.47
66962;HTU21D;53897;51.126;5.868;2023-05-28T11:29:58;25.53;47.50
66962;HTU21D;53897;51.126;5.868;2023-05-28T11:32:26;25.56;47.50
66962;HTU21D;53897;51.126;5.868;2023-05-28T11:34:54;25.57;47.44
66962;HTU21D;53897;51.126;5.868;2023-05-28T11:37:29;25.58;47.37
66962;HTU21D;53897;51.126;5.868;2023-05-28T11:39:56;25.59;47.34
66962;HTU21D;53897;51.126;5.868;2023-05-28T11:42:24;25.60;47.35
66962;HTU21D;53897;51.126;5.868;2023-05-28T11:44:50;25.60;47.34
66962;HTU21D;53897;51.126;5.868;2023-05-28T11:47:18;25.61;47.34
66962;HTU21D;53897;51.126;5.868;2023-05-28T11:49:44;25.65;47.31
66962;HTU21D;53897;51.126;5.868;2023-05-28T11:52:20;25.64;47.31
66962;HTU21D;53897;51.126;5.868;2023-05-28T11:54:51;25.65;47.23
66962;HTU21D;53897;51.126;5.868;2023-05-28T11:57:22;25.65;47.20
66962;HTU21D;53897;51.126;5.868;2023-05-28T12:00:04;25.66;47.22
66962;HTU21D;53897;51.126;5.868;2023-05-28T12:02:47;25.66;47.18
66962;HTU21D;53897;51.126;5.868;2023-05-28T12:05:14;25.67;47.16
66962;HTU21D;53897;51.126;5.868;2023-05-28T12:07:49;25.68;47.16
66962;HTU21D;53897;51.126;5.868;2023-05-28T12:10:17;25.69;47.20
66962;HTU21D;53897;51.126;5.868;2023-05-28T12:12:55;25.69;47.22
66962;HTU21D;53897;51.126;5.868;2023-05-28T12:15:28;25.73;47.22
66962;HTU21D;53897;51.126;5.868;2023-05-28T12:17:57;25.72;47.23
66962;HTU21D;53897;51.126;5.868;2023-05-28T12:23:07;25.74;47.41
66962;HTU21D;53897;51.126;5.868;2023-05-28T12:28:09;25.75;47.50
66962;HTU21D;53897;51.126;5.868;2023-05-28T12:30:35;25.75;47.55
66962;HTU21D;53897;51.126;5.868;2023-05-28T12:33:01;25.78;47.54
66962;HTU21D;53897;51.126;5.868;2023-05-28T12:35:28;25.79;47.50
66962;HTU21D;53897;51.126;5.868;2023-05-28T12:37:53;25.78;47.51
66962;HTU21D;53897;51.126;5.868;2023-05-28T12:40:19;25.80;47.46
66962;HTU21D;53897;51.126;5.868;2023-05-28T12:42:45;25.80;47.34
66962;HTU21D;53897;51.126;5.868;2023-05-28T12:45:11;25.81;47.28
66962;HTU21D;53897;51.126;5.868;2023-05-28T12:47:37;25.81;47.25
66962;HTU21D;53897;51.126;5.868;2023-05-28T12:50:02;25.82;47.19
66962;HTU21D;53897;51.126;5.868;2023-05-28T12:52:28;25.82;47.15
66962;HTU21D;53897;51.126;5.868;2023-05-28T12:54:57;25.82;47.19
66962;HTU21D;53897;51.126;5.868;2023-05-28T12:57:24;25.81;47.16
66962;HTU21D;53897;51.126;5.868;2023-05-28T12:59:50;25.83;47.15
66962;HTU21D;53897;51.126;5.868;2023-05-28T13:02:16;25.83;47.12
66962;HTU21D;53897;51.126;5.868;2023-05-28T13:04:41;25.83;47.12
66962;HTU21D;53897;51.126;5.868;2023-05-28T13:07:07;25.83;47.13
66962;HTU21D;53897;51.126;5.868;2023-05-28T13:09:33;25.84;47.12
66962;HTU21D;53897;51.126;5.868;2023-05-28T13:11:59;25.84;47.08
66962;HTU21D;53897;51.126;5.868;2023-05-28T13:14:26;25.86;47.12
66962;HTU21D;53897;51.126;5.868;2023-05-28T13:16:52;25.87;47.22
66962;HTU21D;53897;51.126;5.868;2023-05-28T13:19:21;25.86;47.22
66962;HTU21D;53897;51.126;5.868;2023-05-28T13:21:47;25.87;47.17
66962;HTU21D;53897;51.126;5.868;2023-05-28T13:24:12;25.86;47.09
66962;HTU21D;53897;51.126;5.868;2023-05-28T13:26:38;25.86;47.07
66962;HTU21D;53897;51.126;5.868;2023-05-28T13:29:04;25.87;46.99
66962;HTU21D;53897;51.126;5.868;2023-05-28T13:31:34;25.87;47.01
66962;HTU21D;53897;51.126;5.868;2023-05-28T13:34:01;25.88;47.15
66962;HTU21D;53897;51.126;5.868;2023-05-28T13:36:27;25.88;47.58
66962;HTU21D;53897;51.126;5.868;2023-05-28T13:38:53;25.89;48.48
66962;HTU21D;53897;51.126;5.868;2023-05-28T13:41:19;25.89;48.99
66962;HTU21D;53897;51.126;5.868;2023-05-28T13:43:46;25.90;49.29
66962;HTU21D;53897;51.126;5.868;2023-05-28T13:46:12;25.89;49.26
66962;HTU21D;53897;51.126;5.868;2023-05-28T13:48:38;25.89;48.96
66962;HTU21D;53897;51.126;5.868;2023-05-28T13:51:04;25.89;48.60
66962;HTU21D;53897;51.126;5.868;2023-05-28T13:53:31;25.89;48.47
66962;HTU21D;53897;51.126;5.868;2023-05-28T13:55:57;25.90;48.41
66962;HTU21D;53897;51.126;5.868;2023-05-28T13:58:24;25.91;48.37
66962;HTU21D;53897;51.126;5.868;2023-05-28T14:00:50;25.92;48.30
66962;HTU21D;53897;51.126;5.868;2023-05-28T14:03:16;25.93;48.27
66962;HTU21D;53897;51.126;5.868;2023-05-28T14:05:45;25.93;48.21
66962;HTU21D;53897;51.126;5.868;2023-05-28T14:08:11;25.93;48.15
66962;HTU21D;53897;51.126;5.868;2023-05-28T14:10:37;25.93;48.11
66962;HTU21D;53897;51.126;5.868;2023-05-28T14:13:03;25.92;48.05
66962;HTU21D;53897;51.126;5.868;2023-05-28T14:15:28;25.93;48.02
66962;HTU21D;53897;51.126;5.868;2023-05-28T14:17:54;25.95;47.97
66962;HTU21D;53897;51.126;5.868;2023-05-28T14:20:20;25.94;47.95
66962;HTU21D;53897;51.126;5.868;2023-05-28T14:22:47;25.94;47.91
66962;HTU21D;53897;51.126;5.868;2023-05-28T14:25:13;25.93;47.87
66962;HTU21D;53897;51.126;5.868;2023-05-28T14:27:38;25.95;47.84
66962;HTU21D;53897;51.126;5.868;2023-05-28T14:30:06;25.95;47.81
66962;HTU21D;53897;51.126;5.868;2023-05-28T14:32:32;25.94;47.77
66962;HTU21D;53897;51.126;5.868;2023-05-28T14:35:00;25.95;47.74
66962;HTU21D;53897;51.126;5.868;2023-05-28T14:37:27;25.95;47.71
66962;HTU21D;53897;51.126;5.868;2023-05-28T14:39:52;25.95;47.69
66962;HTU21D;53897;51.126;5.868;2023-05-28T14:42:18;25.95;47.67
66962;HTU21D;53897;51.126;5.868;2023-05-28T14:44:44;25.96;47.63
66962;HTU21D;53897;51.126;5.868;2023-05-28T14:47:10;25.97;47.61
66962;HTU21D;53897;51.126;5.868;2023-05-28T14:49:36;25.95;47.59
66962;HTU21D;53897;51.126;5.868;2023-05-28T14:54:48;25.97;47.57
66962;HTU21D;53897;51.126;5.868;2023-05-28T14:57:13;25.97;47.57
66962;HTU21D;53897;51.126;5.868;2023-05-28T14:59:39;25.96;47.55
66962;HTU21D;53897;51.126;5.868;2023-05-28T15:02:05;25.97;47.52
66962;HTU21D;53897;51.126;5.868;2023-05-28T15:04:31;25.97;47.51
66962;HTU21D;53897;51.126;5.868;2023-05-28T15:06:57;25.97;47.46
66962;HTU21D;53897;51.126;5.868;2023-05-28T15:09:26;25.97;47.41
66962;HTU21D;53897;51.126;5.868;2023-05-28T15:11:52;25.96;47.38
66962;HTU21D;53897;51.126;5.868;2023-05-28T15:14:17;25.96;47.37
66962;HTU21D;53897;51.126;5.868;2023-05-28T15:16:44;25.96;47.36
66962;HTU21D;53897;51.126;5.868;2023-05-28T15:19:11;25.97;47.40
66962;HTU21D;53897;51.126;5.868;2023-05-28T15:21:37;25.96;47.42
66962;HTU21D;53897;51.126;5.868;2023-05-28T15:24:03;25.97;47.36
66962;HTU21D;53897;51.126;5.868;2023-05-28T15:26:29;25.97;47.30
66962;HTU21D;53897;51.126;5.868;2023-05-28T15:28:56;25.97;47.22
66962;HTU21D;53897;51.126;5.868;2023-05-28T15:31:23;25.96;47.15
66962;HTU21D;53897;51.126;5.868;2023-05-28T15:33:50;25.96;47.11
66962;HTU21D;53897;51.126;5.868;2023-05-28T15:36:16;25.97;47.11